KGRF/GRF METAR and TAF weather

Enter ICAO airport designator
Station Type Date Time Source
KGRF METAR 2024/05/28 20:15 UTC NOAA

KGRF 282015Z AUTO 18009KT 10SM -RA FEW016 SCT021 SCT026 BKN041 BKN049 OVC065 14/10 A3010 RMK AO2 RAE09RAB10 SLP197 $


Station Type Date Time Source
KGRF Decoded METAR 2024/05/28 20:15 UTC NOAA

Fort Lewis / Gray U. S. Army Airfield, WA, United States (KGRF) 47-07N 122-33W 87M
May 28, 2024 - 04:15 PM EDT / 2024.05.28 2015 UTC
Wind: from the S (180 degrees) at 10 MPH (9 KT):0
Visibility: 10 mile(s):0
Sky conditions: overcast
Weather: light rain
Temperature: 57 F (14 C)
Dew Point: 50 F (10 C)
Relative Humidity: 76%
Pressure (altimeter): 30.1 in. Hg (1019 hPa)
ob: KGRF 282015Z AUTO 18009KT 10SM -RA FEW016 SCT021 SCT026 BKN041 BKN049 OVC065 14/10 A3010 RMK AO2 RAE09RAB10 SLP197
cycle: 20

Station Type Date Time Source
KGRF TAF 2024/05/28 13:09 UTC NOAA